Jackhorn, KY (41825)

2:10 PM EDT on September 01, 2015 (GMT -0400)
Ramey Flats | | Change Station
CLOSE
Current Station
Personal Weather Station
Location: Clintwood, VA
Elevation: 1795 ft
Nearby Weather Stations

Elev 1795 ft 37.21 °N, 82.44 °W | Updated 2 minutes ago

Partly Cloudy
Partly Cloudy
82.3 °F
Feels Like 86 °F
N
1.0
Wind Variable Wind from ENE
Gusts 4.0 mph

Today
High -- | Low -- °F
--% Chance of Precip.
Yesterday
High -- | Low -- °F
Precip. -- in
7:01 AM 7:59 PM
Waning Gibbous, 87% visible
Pressure 30.24 in
Visibility 10.0 miles
Clouds Scattered Clouds 3500 ft
Scattered Clouds 4400 ft
Scattered Clouds 5000 ft
Heat Index 86 °F
Dew Point 69 °F
Humidity 65%
Rainfall 0.00 in
Snow Depth Not available.
UV 8 out of 12
Pollen 9.50 out of 12
Air Quality Not available.
Flu Activity Not available.
METAR KLNP 011758Z AUTO 01005KT 10SM SCT035 SCT044 SCT050 28/16 A3024 RMK AO2
Pressure 30.24 in
Visibility 10.0 miles
Clouds Scattered Clouds 3500 ft
Scattered Clouds 4400 ft
Scattered Clouds 5000 ft
Heat Index 86 °F
Dew Point 69 °F
Humidity 65%
Rainfall 0.00 in
Snow Depth Not available.
UV 8 out of 12
Pollen 9.50 out of 12
Air Quality Not available.
Flu Activity Not available.
METAR KLNP 011758Z AUTO 01005KT 10SM SCT035 SCT044 SCT050 28/16 A3024 RMK AO2

10-Day Weather Forecast

×

Almanac

Astronomy

Sep. 01, 2015 Rise Set
Actual Time
Civil Twilight
Nautical Twilight
Astronomical Twilight
Moon
Length of Visible Light
Length of Day
Tomorrow will be .
, % of the Moon is Illuminated

Today's Extremes

State Highs State Lows

Community

WunderPhotos

Upload Photos

1,851,592 photos uploaded!

WunderBlogs® & News

Nearby

Air Quality

  Air Quality AQ Index Pollutant
Not available.

Snow Depth

Station Depth Elevation

Earthquake Activity

City Distance Mag. Time & Date
Minimum magnitude displayed is 2.5.

Coastal Water Temperatures

Place Temperature

Stations

Nearby Weather Stations

Station Location Temp. Windchill Dew Point Humidity Wind Precip. Elev Updated Type